Time;durP1;ratioP1;P1;durP2;ratioP2;P2;SDS_P1;SDS_P2;PMS_P1;PMS_P2;Temp;Humidity;BMP_temperature;BMP_pressure;BME280_temperature;BME280_humidity;BME280_pressure;Samples;Min_cycle;Max_cycle;Signal;HPM_P1;HPM_P2
2022/06/09 00:00:03;;;;;;;12.02;7.90;;;15.10;99.90;;;;;;5090451;28;20205;-78
2022/06/09 00:02:33;;;;;;;15.90;8.35;;;15.20;99.90;;;;;;5096573;28;20189;-78
2022/06/09 00:05:01;;;;;;;12.32;7.45;;;15.10;99.90;;;;;;5093626;28;20200;-78
2022/06/09 00:07:28;;;;;;;12.60;7.38;;;15.10;99.90;;;;;;5086881;28;21707;-78
2022/06/09 00:09:59;;;;;;;12.73;7.43;;;15.10;99.90;;;;;;5096223;28;20197;-78
2022/06/09 00:12:28;;;;;;;16.85;7.50;;;15.10;99.90;;;;;;5093217;28;20686;-78
2022/06/09 00:14:57;;;;;;;14.55;7.40;;;15.10;99.90;;;;;;5091774;28;20201;-78
2022/06/09 00:17:25;;;;;;;12.05;7.38;;;15.00;99.90;;;;;;5093482;28;20209;-78
2022/06/09 00:20:23;;;;;;;13.05;6.93;;;15.00;99.90;;;;;;5088798;28;20217;-78
2022/06/09 00:22:51;;;;;;;10.77;6.43;;;15.00;99.90;;;;;;5093948;28;20189;-78
2022/06/09 00:25:19;;;;;;;13.05;6.93;;;15.00;99.90;;;;;;5087392;28;20197;-78
2022/06/09 00:27:46;;;;;;;10.65;6.95;;;14.90;99.90;;;;;;5100003;28;20196;-78
2022/06/09 00:30:17;;;;;;;13.50;6.57;;;15.00;99.90;;;;;;5079084;28;20200;-78
2022/06/09 00:32:45;;;;;;;11.77;6.95;;;15.00;99.90;;;;;;5084880;28;20208;-78
2022/06/09 00:35:13;;;;;;;12.10;6.15;;;15.00;99.90;;;;;;5083048;28;20193;-78
2022/06/09 00:37:41;;;;;;;10.13;6.35;;;14.90;99.90;;;;;;5086181;28;20201;-78
2022/06/09 00:40:12;;;;;;;9.57;6.32;;;14.90;99.90;;;;;;5091866;28;20215;-78
2022/06/09 00:42:40;;;;;;;9.13;6.05;;;14.90;99.90;;;;;;5092465;28;20189;-78
2022/06/09 00:45:36;;;;;;;10.27;6.03;;;14.90;99.90;;;;;;5082809;28;20201;-78
2022/06/09 00:48:22;;;;;;;16.58;6.18;;;14.90;99.90;;;;;;5088700;28;20551;-77
2022/06/09 00:50:53;;;;;;;10.55;5.80;;;14.90;99.90;;;;;;5083383;28;20189;-78
2022/06/09 00:53:24;;;;;;;9.40;5.45;;;14.80;99.90;;;;;;5091474;28;20563;-78
2022/06/09 00:55:53;;;;;;;14.98;5.90;;;14.90;99.90;;;;;;5083545;28;20229;-78
2022/06/09 00:58:24;;;;;;;12.15;5.30;;;14.90;99.90;;;;;;5091297;28;20193;-78
2022/06/09 01:00:56;;;;;;;13.73;6.00;;;14.90;99.90;;;;;;5078459;28;20217;-78
2022/06/09 01:03:26;;;;;;;10.00;6.28;;;14.90;99.90;;;;;;5094748;28;20193;-78
2022/06/09 01:06:00;;;;;;;10.18;5.82;;;14.90;99.90;;;;;;5084780;28;20676;-78
2022/06/09 01:08:29;;;;;;;10.05;5.47;;;14.90;99.90;;;;;;5089306;28;20201;-77
2022/06/09 01:10:56;;;;;;;12.93;6.15;;;14.90;99.90;;;;;;5093359;28;20539;-78
2022/06/09 01:13:24;;;;;;;11.85;5.78;;;14.90;99.90;;;;;;5089065;28;20212;-78
2022/06/09 01:16:02;;;;;;;10.10;5.82;;;14.90;99.90;;;;;;5090912;28;20563;-78
2022/06/09 01:18:37;;;;;;;8.38;5.38;;;14.90;99.90;;;;;;5089418;28;20217;-78
2022/06/09 01:21:18;;;;;;;12.70;5.70;;;14.90;99.90;;;;;;5095135;28;20565;-78
2022/06/09 01:24:11;;;;;;;9.38;5.40;;;14.90;99.90;;;;;;5092731;28;20208;-78
2022/06/09 01:26:54;;;;;;;9.80;4.60;;;14.90;99.90;;;;;;5081586;28;20726;-78
2022/06/09 01:29:38;;;;;;;5.75;4.63;;;14.90;99.90;;;;;;5087714;28;20678;-78
2022/06/09 01:32:12;;;;;;;8.90;5.25;;;14.90;99.90;;;;;;5085037;28;20612;-78
2022/06/09 01:34:48;;;;;;;7.10;4.45;;;14.80;99.90;;;;;;5080624;28;20193;-77
2022/06/09 01:37:18;;;;;;;10.10;4.43;;;14.80;99.90;;;;;;5084566;28;20220;-78
2022/06/09 01:40:12;;;;;;;9.90;4.88;;;14.80;99.90;;;;;;5095930;28;20217;-77
2022/06/09 01:42:43;;;;;;;11.40;4.80;;;14.80;99.90;;;;;;5081946;28;20200;-78
2022/06/09 01:45:14;;;;;;;9.95;4.63;;;14.80;99.90;;;;;;5082805;28;20193;-78
2022/06/09 01:47:48;;;;;;;7.93;4.03;;;14.80;99.90;;;;;;5086111;28;20562;-78
2022/06/09 01:50:22;;;;;;;11.75;4.70;;;14.90;99.90;;;;;;5087205;28;20189;-78
2022/06/09 01:52:52;;;;;;;9.82;4.57;;;14.70;99.90;;;;;;5084127;28;20195;-78
2022/06/09 01:55:22;;;;;;;7.45;3.88;;;14.70;99.90;;;;;;5085743;28;20190;-78
2022/06/09 01:57:55;;;;;;;11.85;4.70;;;14.80;99.90;;;;;;5095097;28;20661;-78
2022/06/09 02:00:23;;;;;;;7.57;4.30;;;14.90;99.90;;;;;;5085915;28;20220;-78
2022/06/09 02:02:55;;;;;;;7.25;4.30;;;14.90;99.90;;;;;;5086948;28;20920;-78
2022/06/09 02:05:25;;;;;;;11.25;4.93;;;14.80;99.90;;;;;;5090299;28;20217;-78
2022/06/09 02:07:56;;;;;;;10.10;4.90;;;14.80;99.90;;;;;;5089636;28;20199;-78
2022/06/09 02:10:31;;;;;;;11.23;4.68;;;14.80;99.90;;;;;;5078105;28;20201;-78
2022/06/09 02:13:04;;;;;;;9.77;4.32;;;14.80;99.90;;;;;;5078031;28;20207;-78
2022/06/09 02:15:36;;;;;;;11.52;5.03;;;14.80;99.90;;;;;;5076951;28;20214;-78
2022/06/09 02:18:11;;;;;;;12.95;4.60;;;14.90;99.90;;;;;;5092554;28;20223;-78
2022/06/09 02:20:43;;;;;;;10.68;4.32;;;14.80;99.90;;;;;;5073791;28;20224;-78
2022/06/09 02:23:11;;;;;;;8.35;4.20;;;14.80;99.90;;;;;;5080554;28;20204;-78
2022/06/09 02:25:39;;;;;;;8.32;3.47;;;14.80;99.90;;;;;;5081063;28;20224;-78
2022/06/09 02:28:07;;;;;;;12.55;4.47;;;14.80;99.90;;;;;;5084985;28;20200;-78
2022/06/09 02:30:35;;;;;;;8.85;4.45;;;14.80;99.90;;;;;;5102264;28;20200;-77
2022/06/09 02:33:03;;;;;;;12.70;4.95;;;14.90;99.90;;;;;;5089135;28;20212;-78
2022/06/09 02:35:32;;;;;;;9.80;4.40;;;14.80;99.90;;;;;;5084538;28;20221;-77
2022/06/09 02:38:00;;;;;;;9.32;4.35;;;14.80;99.90;;;;;;5084119;28;20204;-78
2022/06/09 02:40:28;;;;;;;11.40;5.25;;;14.70;99.90;;;;;;5090484;28;20213;-78
2022/06/09 02:42:57;;;;;;;10.02;4.65;;;14.80;99.90;;;;;;5076938;28;20217;-78
2022/06/09 02:45:29;;;;;;;9.73;4.40;;;14.80;99.90;;;;;;5091010;28;20227;-78
2022/06/09 02:47:57;;;;;;;10.55;3.97;;;14.70;99.90;;;;;;5087062;28;20207;-78
2022/06/09 02:50:25;;;;;;;12.38;4.90;;;14.70;99.90;;;;;;5088562;28;20200;-77
2022/06/09 02:52:54;;;;;;;12.77;4.57;;;14.60;99.90;;;;;;5093188;28;20208;-78
2022/06/09 02:55:22;;;;;;;7.43;4.50;;;14.60;99.90;;;;;;5082061;28;20205;-77
2022/06/09 02:57:49;;;;;;;9.73;4.47;;;14.60;99.90;;;;;;5078074;28;20206;-77
2022/06/09 03:00:17;;;;;;;11.25;4.90;;;14.60;99.90;;;;;;5086655;28;20216;-78
2022/06/09 03:02:53;;;;;;;14.35;5.60;;;14.60;99.90;;;;;;5084443;28;20212;-78
2022/06/09 03:05:20;;;;;;;11.55;5.05;;;14.60;99.90;;;;;;5082810;28;20192;-77
2022/06/09 03:07:48;;;;;;;9.68;4.05;;;14.50;99.90;;;;;;5089078;28;20190;-78
2022/06/09 03:10:17;;;;;;;10.10;4.57;;;14.50;99.90;;;;;;5106083;28;20189;-77
2022/06/09 03:12:45;;;;;;;10.07;4.50;;;14.50;99.90;;;;;;5092621;28;20201;-78
2022/06/09 03:15:35;;;;;;;11.82;5.90;;;14.50;99.90;;;;;;5089847;28;20200;-78
2022/06/09 03:18:03;;;;;;;10.65;4.63;;;14.50;99.90;;;;;;5086793;28;20210;-77
2022/06/09 03:20:33;;;;;;;8.90;4.90;;;14.40;99.90;;;;;;5089833;28;20205;-78
2022/06/09 03:23:01;;;;;;;12.73;4.43;;;14.50;99.90;;;;;;5082966;28;20198;-78
2022/06/09 03:25:29;;;;;;;10.45;5.00;;;14.40;99.90;;;;;;5089530;28;20217;-78
2022/06/09 03:27:57;;;;;;;12.00;5.05;;;14.40;99.90;;;;;;5087214;28;20194;-78
2022/06/09 03:30:25;;;;;;;11.45;4.78;;;14.40;99.90;;;;;;5092596;28;20232;-77
2022/06/09 03:32:52;;;;;;;16.23;5.28;;;14.30;99.90;;;;;;5088474;28;20210;-77
2022/06/09 03:35:20;;;;;;;11.45;5.55;;;14.30;99.90;;;;;;5088388;28;20206;-77
2022/06/09 03:37:47;;;;;;;12.23;5.72;;;14.30;99.90;;;;;;5093649;28;20205;-78
2022/06/09 03:40:21;;;;;;;11.07;6.22;;;14.30;99.90;;;;;;5083909;28;20213;-77
2022/06/09 03:42:49;;;;;;;12.93;5.35;;;14.30;99.90;;;;;;5084998;28;20197;-77
2022/06/09 03:45:17;;;;;;;13.43;5.85;;;14.30;99.90;;;;;;5074586;28;20201;-78
2022/06/09 03:47:45;;;;;;;14.05;5.80;;;14.20;99.90;;;;;;5084931;28;20216;-78
2022/06/09 03:50:17;;;;;;;14.85;5.68;;;14.30;99.90;;;;;;5080909;28;20566;-78
2022/06/09 03:52:44;;;;;;;9.90;6.13;;;14.30;99.90;;;;;;5090374;28;20553;-78
2022/06/09 03:55:11;;;;;;;15.02;6.80;;;14.30;99.90;;;;;;5090799;28;20193;-78
2022/06/09 03:57:39;;;;;;;18.13;7.93;;;14.20;99.90;;;;;;5086148;28;20218;-78
2022/06/09 04:00:13;;;;;;;12.98;6.80;;;14.20;99.90;;;;;;5088835;28;20196;-78
2022/06/09 04:02:41;;;;;;;13.65;6.93;;;14.30;99.90;;;;;;5089488;28;20193;-77
2022/06/09 04:05:09;;;;;;;15.10;7.15;;;14.40;99.90;;;;;;5095887;28;20558;-78
2022/06/09 04:07:36;;;;;;;17.60;8.43;;;14.30;99.90;;;;;;5085383;28;20210;-78
2022/06/09 04:10:05;;;;;;;15.98;8.50;;;14.20;99.90;;;;;;5095480;28;20196;-78
2022/06/09 04:12:34;;;;;;;19.60;8.48;;;14.30;99.90;;;;;;5089373;28;20201;-78
2022/06/09 04:15:02;;;;;;;15.68;9.43;;;14.40;99.90;;;;;;5085049;28;20201;-78
2022/06/09 04:17:31;;;;;;;16.63;10.07;;;14.30;99.90;;;;;;5087669;28;20199;-78
2022/06/09 04:19:59;;;;;;;23.17;12.18;;;14.30;99.90;;;;;;5093712;28;20211;-78
2022/06/09 04:22:26;;;;;;;21.70;12.98;;;14.20;99.90;;;;;;5085940;28;20209;-78
2022/06/09 04:24:56;;;;;;;23.25;13.32;;;14.30;99.90;;;;;;5088557;28;20296;-78
2022/06/09 04:27:24;;;;;;;24.17;13.80;;;14.30;99.90;;;;;;5082544;28;20221;-77
2022/06/09 04:29:52;;;;;;;22.25;14.05;;;14.30;99.90;;;;;;5096108;28;20197;-78
2022/06/09 04:32:19;;;;;;;25.98;14.57;;;14.30;99.90;;;;;;5078543;28;20204;-78
2022/06/09 04:34:48;;;;;;;24.00;14.57;;;14.30;99.90;;;;;;5082271;28;20571;-77
2022/06/09 04:38:14;;;;;;;21.70;14.00;;;14.40;99.90;;;;;;5088839;28;20216;-78
2022/06/09 04:40:42;;;;;;;29.23;14.80;;;14.30;99.90;;;;;;5086973;28;20551;-78
2022/06/09 04:43:12;;;;;;;20.77;15.13;;;14.30;99.90;;;;;;5085720;28;20216;-78
2022/06/09 04:45:41;;;;;;;27.13;16.90;;;14.30;99.90;;;;;;5079538;28;20232;-77
2022/06/09 04:48:09;;;;;;;26.00;17.42;;;14.30;99.90;;;;;;5081824;28;20203;-77
2022/06/09 04:50:39;;;;;;;26.02;17.42;;;14.20;99.90;;;;;;5087714;28;20196;-78
2022/06/09 04:53:09;;;;;;;29.52;18.02;;;14.20;99.90;;;;;;5090013;28;20196;-78
2022/06/09 04:55:36;;;;;;;29.45;16.85;;;14.30;99.90;;;;;;5086501;28;20217;-78
2022/06/09 04:58:04;;;;;;;26.33;15.77;;;14.40;99.90;;;;;;5091265;28;20193;-77
2022/06/09 05:00:32;;;;;;;32.15;16.38;;;14.30;99.90;;;;;;5086261;28;20189;-78
2022/06/09 05:03:01;;;;;;;28.02;17.85;;;14.40;99.90;;;;;;5082127;28;20197;-77
2022/06/09 05:05:32;;;;;;;26.92;18.17;;;14.30;99.90;;;;;;5088728;28;20221;-77
2022/06/09 05:08:01;;;;;;;32.65;18.63;;;14.30;99.90;;;;;;5084496;28;20197;-78
2022/06/09 05:10:29;;;;;;;31.67;19.77;;;14.40;99.90;;;;;;5087017;28;20188;-77
2022/06/09 05:12:57;;;;;;;34.83;20.88;;;14.30;99.90;;;;;;5082157;28;20196;-78
2022/06/09 05:15:57;;;;;;;29.67;19.10;;;14.30;99.90;;;;;;5086219;28;20201;-78
2022/06/09 05:18:28;;;;;;;31.00;20.90;;;14.40;99.90;;;;;;5082294;28;20201;-78
2022/06/09 05:20:58;;;;;;;33.58;20.15;;;14.40;99.90;;;;;;5080557;28;20200;-79
2022/06/09 05:24:02;;;;;;;29.25;20.45;;;14.40;99.90;;;;;;5084200;28;20241;-78
2022/06/09 05:26:41;;;;;;;36.83;21.10;;;14.50;99.90;;;;;;5049714;28;20229;-78
2022/06/09 05:29:09;;;;;;;34.03;22.08;;;14.70;99.90;;;;;;5051013;28;20204;-78
2022/06/09 05:31:37;;;;;;;29.40;21.20;;;14.50;99.90;;;;;;5044053;28;20205;-78
2022/06/09 05:34:04;;;;;;;31.92;20.30;;;14.60;99.90;;;;;;5048564;28;20193;-78
2022/06/09 05:36:32;;;;;;;30.88;20.83;;;14.60;99.90;;;;;;5046654;28;20214;-78
2022/06/09 05:45:10;;;;;;;33.08;20.88;;;14.50;99.90;;;;;;5045188;28;20198;-78
2022/06/09 05:47:37;;;;;;;33.50;21.02;;;14.60;99.90;;;;;;5049212;28;20195;-77
2022/06/09 05:50:06;;;;;;;32.22;21.92;;;14.50;99.90;;;;;;5044066;28;20226;-77
2022/06/09 05:52:35;;;;;;;32.65;20.23;;;14.60;99.90;;;;;;5037204;28;20193;-78
2022/06/09 05:55:02;;;;;;;29.45;20.50;;;14.70;99.90;;;;;;5048320;28;20221;-78
2022/06/09 05:57:32;;;;;;;29.75;21.20;;;14.70;99.90;;;;;;5046929;28;20221;-78
2022/06/09 05:59:59;;;;;;;29.20;21.35;;;14.80;99.90;;;;;;5048510;28;20697;-77
2022/06/09 06:03:15;;;;;;;32.50;21.83;;;14.80;99.90;;;;;;5044409;28;20680;-77
2022/06/09 06:08:29;;;;;;;27.65;20.38;;;14.80;99.90;;;;;;5043755;28;20667;-78
2022/06/09 06:10:57;;;;;;;25.55;19.52;;;14.90;99.90;;;;;;5048480;28;20227;-78
2022/06/09 06:13:26;;;;;;;29.30;21.63;;;14.90;99.90;;;;;;5044442;28;20182;-78
2022/06/09 06:15:54;;;;;;;35.78;21.00;;;15.00;99.90;;;;;;5047339;28;20233;-78
2022/06/09 06:18:21;;;;;;;33.58;20.85;;;15.00;99.90;;;;;;5044526;28;20569;-78
2022/06/09 06:20:49;;;;;;;29.95;21.88;;;15.00;99.90;;;;;;5045833;28;20656;-78
2022/06/09 06:23:16;;;;;;;33.15;21.65;;;15.00;99.90;;;;;;5047308;28;20226;-77
2022/06/09 06:25:44;;;;;;;29.02;19.98;;;15.20;99.90;;;;;;5050355;28;20218;-78
2022/06/09 06:28:11;;;;;;;27.73;21.77;;;15.20;99.90;;;;;;5062084;28;20220;-78
2022/06/09 06:30:40;;;;;;;27.00;22.02;;;15.20;99.90;;;;;;5045785;28;20198;-78
2022/06/09 06:33:07;;;;;;;31.65;21.80;;;15.20;99.90;;;;;;5071958;28;20218;-78
2022/06/09 06:35:35;;;;;;;30.98;22.13;;;15.20;99.90;;;;;;5042772;28;20229;-77
2022/06/09 06:38:02;;;;;;;29.42;21.25;;;15.10;99.90;;;;;;5043621;28;20190;-77
2022/06/09 06:40:30;;;;;;;34.25;23.58;;;15.40;99.90;;;;;;5047467;28;20198;-78
2022/06/09 06:42:57;;;;;;;31.92;22.85;;;15.30;99.90;;;;;;5051952;28;20213;-77
2022/06/09 06:45:25;;;;;;;32.67;23.52;;;15.30;99.90;;;;;;5050293;28;20209;-77
2022/06/09 06:47:54;;;;;;;34.38;24.52;;;15.30;99.90;;;;;;5065771;28;20213;-78
2022/06/09 06:50:22;;;;;;;29.40;23.00;;;15.30;99.90;;;;;;5051842;28;20206;-78
2022/06/09 06:52:59;;;;;;;32.15;25.27;;;15.20;99.90;;;;;;5044305;28;20199;-77
2022/06/09 06:55:27;;;;;;;35.30;25.17;;;15.30;99.90;;;;;;5037334;28;20223;-77
2022/06/09 06:57:54;;;;;;;35.28;24.13;;;15.20;99.90;;;;;;5057466;28;20684;-77
2022/06/09 07:00:35;;;;;;;34.17;24.60;;;15.40;99.90;;;;;;5060006;28;20203;-78
2022/06/09 07:03:07;;;;;;;33.92;26.30;;;15.50;99.90;;;;;;5046427;28;20206;-77
2022/06/09 07:05:34;;;;;;;34.50;26.17;;;15.40;99.90;;;;;;5067402;28;20225;-79
2022/06/09 07:08:16;;;;;;;36.20;25.58;;;15.50;99.90;;;;;;5044020;28;20206;-77
2022/06/09 07:10:52;;;;;;;35.00;27.00;;;15.40;99.90;;;;;;5051756;28;20202;-78
2022/06/09 07:13:19;;;;;;;36.30;27.00;;;15.60;99.90;;;;;;5046484;28;20189;-77
2022/06/09 07:15:47;;;;;;;37.10;26.75;;;15.30;99.90;;;;;;5050597;28;20684;-77
2022/06/09 07:18:16;;;;;;;36.63;27.92;;;15.10;99.90;;;;;;5055502;28;20198;-78
2022/06/09 07:20:48;;;;;;;39.35;29.10;;;15.10;99.90;;;;;;5051067;28;20637;-78
2022/06/09 07:23:26;;;;;;;41.72;29.35;;;15.10;99.90;;;;;;5049999;28;20580;-77
2022/06/09 07:25:54;;;;;;;39.58;29.17;;;15.00;99.90;;;;;;5048317;28;20684;-78
2022/06/09 07:28:30;;;;;;;39.22;28.10;;;15.00;99.90;;;;;;5045824;28;20194;-78
2022/06/09 07:31:00;;;;;;;40.60;31.60;;;15.10;99.90;;;;;;5048594;28;20202;-78
2022/06/09 07:33:34;;;;;;;38.80;29.38;;;15.00;99.90;;;;;;5045415;28;20205;-78
2022/06/09 07:36:02;;;;;;;42.42;29.42;;;15.10;99.90;;;;;;5048640;28;20230;-78
2022/06/09 07:38:30;;;;;;;39.45;30.58;;;15.20;99.90;;;;;;5047560;28;20199;-78
2022/06/09 07:41:00;;;;;;;39.47;30.30;;;15.10;99.90;;;;;;5082004;28;20316;-78
2022/06/09 07:43:27;;;;;;;43.45;30.63;;;15.20;99.90;;;;;;5051567;28;20222;-78
2022/06/09 07:45:54;;;;;;;41.00;30.00;;;15.20;99.90;;;;;;5045835;28;20234;-78
2022/06/09 07:48:22;;;;;;;40.25;29.48;;;15.30;99.90;;;;;;5047575;28;20205;-78
2022/06/09 07:50:52;;;;;;;36.50;29.02;;;15.30;99.90;;;;;;5062033;28;20218;-78
2022/06/09 07:53:28;;;;;;;33.95;28.45;;;15.30;99.90;;;;;;5047811;28;20210;-78
2022/06/09 07:55:56;;;;;;;43.58;31.55;;;15.40;99.90;;;;;;5049374;28;20224;-78
2022/06/09 07:58:23;;;;;;;35.90;27.23;;;15.30;99.90;;;;;;5042210;28;20207;-78
2022/06/09 08:00:51;;;;;;;40.85;30.05;;;15.50;99.90;;;;;;5055101;28;20217;-78
2022/06/09 08:03:21;;;;;;;37.25;28.63;;;15.50;99.90;;;;;;5044278;28;20214;-78
2022/06/09 08:05:49;;;;;;;37.35;28.15;;;15.80;99.90;;;;;;5048412;28;20233;-78
2022/06/09 08:08:19;;;;;;;37.97;29.13;;;15.80;99.90;;;;;;5045920;28;20183;-78
2022/06/09 08:10:48;;;;;;;38.03;28.85;;;15.80;99.90;;;;;;5083916;28;20198;-79
2022/06/09 08:13:17;;;;;;;39.63;27.92;;;15.90;99.90;;;;;;5059191;28;20190;-78
2022/06/09 08:15:46;;;;;;;36.20;26.30;;;16.10;99.90;;;;;;5044516;28;20227;-78
2022/06/09 08:18:13;;;;;;;28.27;22.92;;;16.20;99.90;;;;;;5038611;28;20237;-77
2022/06/09 08:20:43;;;;;;;31.25;24.92;;;16.10;99.90;;;;;;5045826;28;20205;-78
2022/06/09 08:23:30;;;;;;;36.00;27.00;;;16.20;99.90;;;;;;5047924;28;20237;-77
2022/06/09 08:26:02;;;;;;;44.03;29.95;;;16.30;99.90;;;;;;5042293;28;20221;-77
2022/06/09 08:28:31;;;;;;;35.90;28.85;;;16.10;99.90;;;;;;5047048;28;20282;-78
2022/06/09 08:30:59;;;;;;;37.05;28.85;;;15.90;99.90;;;;;;5052661;28;20676;-79
2022/06/09 08:33:27;;;;;;;33.97;29.20;;;16.00;99.90;;;;;;5045246;28;20555;-78
2022/06/09 08:35:55;;;;;;;37.80;29.50;;;16.00;99.90;;;;;;5053709;28;20226;-78
2022/06/09 08:38:33;;;;;;;37.90;29.90;;;15.90;99.90;;;;;;5049152;28;20199;-78
2022/06/09 08:41:08;;;;;;;40.00;27.48;;;16.30;99.90;;;;;;5054808;28;20190;-78
2022/06/09 08:43:40;;;;;;;36.03;27.33;;;16.30;99.90;;;;;;5052499;28;20215;-78
2022/06/09 08:46:23;;;;;;;34.88;27.10;;;16.40;99.90;;;;;;5058056;28;20237;-78
2022/06/09 08:48:51;;;;;;;27.38;24.42;;;16.70;99.90;;;;;;5044797;28;20207;-78
2022/06/09 08:51:24;;;;;;;27.25;22.73;;;16.70;99.90;;;;;;5038689;28;20202;-78
2022/06/09 08:54:02;;;;;;;23.45;21.00;;;16.60;99.90;;;;;;5048501;28;20219;-78
2022/06/09 08:56:32;;;;;;;28.45;22.83;;;16.80;99.90;;;;;;5045042;28;20226;-78
2022/06/09 08:59:03;;;;;;;27.15;22.80;;;16.80;99.90;;;;;;5035355;28;20206;-78
2022/06/09 09:01:36;;;;;;;29.27;24.60;;;17.00;99.90;;;;;;5046541;28;20198;-78
2022/06/09 09:04:15;;;;;;;28.48;24.38;;;16.80;99.90;;;;;;5075925;28;20214;-78
2022/06/09 09:06:48;;;;;;;29.52;24.25;;;16.90;99.90;;;;;;5044146;28;20587;-78
2022/06/09 09:09:22;;;;;;;31.38;24.35;;;16.90;99.90;;;;;;5044683;28;20198;-78
2022/06/09 09:12:09;;;;;;;29.15;23.50;;;16.80;99.90;;;;;;5048284;28;20645;-77
2022/06/09 09:14:47;;;;;;;29.27;23.77;;;16.90;99.90;;;;;;5044090;28;20186;-77
2022/06/09 09:17:22;;;;;;;26.05;23.27;;;17.00;99.90;;;;;;5047246;28;20746;-78
2022/06/09 09:19:57;;;;;;;25.45;22.73;;;17.00;99.90;;;;;;5078194;28;20208;-77
2022/06/09 09:22:31;;;;;;;26.92;24.02;;;17.10;99.90;;;;;;5046562;28;20190;-78
2022/06/09 09:25:18;;;;;;;27.52;22.33;;;17.10;99.90;;;;;;5041137;28;20214;-77
2022/06/09 09:27:49;;;;;;;27.70;21.90;;;17.00;99.90;;;;;;5043388;28;20191;-78
2022/06/09 09:30:21;;;;;;;21.60;19.48;;;17.10;99.90;;;;;;5058707;28;20566;-78
2022/06/09 09:32:51;;;;;;;23.73;20.83;;;17.40;99.90;;;;;;5044348;28;20195;-78
2022/06/09 09:35:20;;;;;;;22.30;20.00;;;17.70;99.90;;;;;;5033240;28;20217;-78
2022/06/09 09:37:51;;;;;;;25.40;22.73;;;17.80;99.90;;;;;;5035413;28;20199;-78
2022/06/09 09:40:30;;;;;;;23.50;21.10;;;17.70;99.90;;;;;;5043295;28;20557;-78
2022/06/09 09:43:00;;;;;;;27.65;22.92;;;17.70;99.90;;;;;;5047152;28;20715;-78
2022/06/09 09:45:37;;;;;;;26.17;22.38;;;17.80;99.90;;;;;;5042694;28;20195;-78
2022/06/09 09:48:30;;;;;;;22.65;20.40;;;17.90;99.90;;;;;;5038672;28;20198;-78
2022/06/09 09:51:00;;;;;;;24.52;21.48;;;18.00;99.90;;;;;;5072550;28;20209;-78
2022/06/09 09:53:31;;;;;;;24.60;21.92;;;18.10;99.90;;;;;;5049377;28;20671;-78
2022/06/09 09:56:02;;;;;;;24.02;21.55;;;18.00;99.90;;;;;;5041124;28;20223;-78
2022/06/09 09:58:36;;;;;;;25.27;21.98;;;18.10;99.90;;;;;;5078455;28;20572;-78
2022/06/09 10:01:06;;;;;;;22.30;20.05;;;18.10;99.90;;;;;;5041438;28;20199;-78
2022/06/09 10:09:22;;;;;;;19.70;17.80;;;18.30;99.90;;;;;;5046464;28;20563;-78
2022/06/09 10:11:54;;;;;;;19.98;17.63;;;18.20;99.90;;;;;;5050117;28;20202;-78
2022/06/09 10:14:40;;;;;;;20.35;18.42;;;18.30;99.90;;;;;;5048889;28;20666;-78
2022/06/09 10:17:45;;;;;;;22.45;19.90;;;18.40;99.90;;;;;;5049512;28;20237;-78
2022/06/09 10:20:28;;;;;;;22.75;18.80;;;18.30;99.90;;;;;;5061954;28;20206;-78
2022/06/09 10:23:01;;;;;;;19.10;17.20;;;18.20;99.90;;;;;;5045271;28;20660;-78
2022/06/09 10:25:34;;;;;;;21.50;18.67;;;18.00;99.90;;;;;;5054568;28;20214;-79
2022/06/09 10:28:13;;;;;;;24.02;18.88;;;17.80;99.90;;;;;;5046255;28;20669;-79
2022/06/09 10:30:50;;;;;;;23.13;19.73;;;17.90;99.90;;;;;;5046584;28;20199;-78
2022/06/09 10:33:29;;;;;;;22.73;20.63;;;17.90;99.90;;;;;;5050321;28;20201;-79
2022/06/09 10:36:17;;;;;;;22.50;20.05;;;17.70;99.90;;;;;;5047939;28;20228;-79
2022/06/09 10:38:48;;;;;;;20.38;18.38;;;17.60;99.90;;;;;;5047814;28;20203;-79
2022/06/09 10:41:21;;;;;;;18.45;16.50;;;17.60;99.90;;;;;;5050090;28;20198;-79
2022/06/09 10:43:56;;;;;;;22.88;18.92;;;17.60;99.90;;;;;;5053188;28;20714;-79
2022/06/09 10:46:36;;;;;;;21.48;19.35;;;17.70;99.90;;;;;;5043088;28;20214;-78
2022/06/09 10:55:19;;;;;;;18.73;16.90;;;18.10;99.90;;;;;;5026206;28;20198;-77
2022/06/09 10:57:55;;;;;;;16.23;14.52;;;18.30;99.90;;;;;;5045761;28;20198;-77
2022/06/09 11:00:31;;;;;;;14.88;13.38;;;18.60;99.90;;;;;;5059666;28;20197;-78
2022/06/09 11:03:02;;;;;;;17.65;15.80;;;18.60;99.90;;;;;;5049896;28;20549;-78
2022/06/09 11:05:41;;;;;;;17.15;15.05;;;18.40;99.90;;;;;;5067567;28;20214;-77
2022/06/09 11:08:20;;;;;;;14.75;13.35;;;18.70;99.90;;;;;;5048663;28;20664;-78
2022/06/09 11:10:58;;;;;;;13.00;11.30;;;18.90;99.90;;;;;;5048391;28;20207;-78
2022/06/09 11:13:56;;;;;;;13.02;10.25;;;18.80;99.90;;;;;;5043645;28;20206;-77
2022/06/09 11:16:31;;;;;;;12.25;9.43;;;19.20;99.90;;;;;;5048147;28;20218;-78
2022/06/09 11:19:20;;;;;;;11.50;9.73;;;19.10;99.90;;;;;;5048069;28;20214;-79
2022/06/09 11:21:56;;;;;;;12.40;9.73;;;18.90;99.90;;;;;;5051122;28;20202;-78
2022/06/09 11:24:33;;;;;;;9.68;8.45;;;18.80;99.90;;;;;;5050953;28;20214;-79
2022/06/09 11:27:14;;;;;;;8.48;7.72;;;18.60;99.90;;;;;;5052953;28;20221;-79
2022/06/09 11:29:58;;;;;;;8.05;6.93;;;18.70;99.90;;;;;;5052542;28;20206;-78
2022/06/09 11:32:45;;;;;;;8.38;7.47;;;18.70;99.90;;;;;;5047002;28;20205;-78
2022/06/09 11:35:44;;;;;;;8.65;7.57;;;18.70;99.90;;;;;;5051508;28;20190;-78
2022/06/09 11:38:21;;;;;;;10.20;9.20;;;18.40;99.90;;;;;;5053374;28;20549;-78
2022/06/09 11:40:58;;;;;;;10.13;9.23;;;18.50;99.90;;;;;;5049819;28;20206;-78
2022/06/09 11:43:45;;;;;;;10.27;9.20;;;18.70;99.90;;;;;;5034361;28;20199;-77
2022/06/09 11:46:19;;;;;;;9.35;8.55;;;18.50;99.90;;;;;;5064744;28;20222;-79
2022/06/09 11:48:51;;;;;;;9.18;8.30;;;18.40;99.90;;;;;;5042570;28;20661;-79
2022/06/09 11:51:22;;;;;;;10.45;9.50;;;18.40;99.90;;;;;;5036350;28;20205;-79
2022/06/09 11:57:49;;;;;;;13.77;11.18;;;18.70;99.90;;;;;;5060363;28;20170;-78
2022/06/09 12:00:49;;;;;;;11.23;10.13;;;18.80;99.90;;;;;;5041501;28;20198;-80
2022/06/09 12:03:37;;;;;;;11.93;10.70;;;18.90;99.90;;;;;;4996442;28;20557;-79
2022/06/09 12:06:16;;;;;;;11.90;10.27;;;18.70;99.90;;;;;;4993859;28;20224;-78
2022/06/09 12:08:53;;;;;;;9.88;7.95;;;18.70;99.90;;;;;;5031610;28;20202;-78
2022/06/09 12:11:23;;;;;;;11.13;9.65;;;18.90;99.90;;;;;;5052672;28;20202;-78
2022/06/09 12:14:40;;;;;;;10.00;8.40;;;18.90;99.90;;;;;;5050559;28;20203;-79
2022/06/09 12:17:22;;;;;;;7.20;4.28;;;18.70;99.90;;;;;;5051954;28;20228;-78
2022/06/09 12:19:57;;;;;;;4.05;1.50;;;18.10;99.90;;;;;;5054167;28;20194;-77
2022/06/09 12:22:49;;;;;;;1.75;1.00;;;17.60;99.90;;;;;;5037954;28;20206;-78
2022/06/09 12:25:29;;;;;;;0.90;0.80;;;17.40;99.90;;;;;;5061081;28;20202;-77
2022/06/09 12:28:45;;;;;;;1.20;1.00;;;17.20;99.90;;;;;;5052463;28;20210;-77
2022/06/09 12:31:15;;;;;;;1.88;1.13;;;17.10;99.90;;;;;;5059340;28;20201;-77
2022/06/09 12:33:52;;;;;;;4.00;1.27;;;17.00;99.90;;;;;;5060093;28;20218;-78
2022/06/09 12:36:36;;;;;;;2.17;1.45;;;17.00;99.90;;;;;;5048291;28;20221;-81
2022/06/09 12:39:22;;;;;;;3.00;1.35;;;16.80;99.90;;;;;;5048610;28;20208;-78
2022/06/09 12:41:53;;;;;;;2.30;1.30;;;16.60;99.90;;;;;;5050088;28;20560;-78
2022/06/09 12:44:28;;;;;;;1.50;1.40;;;16.70;99.90;;;;;;5052587;28;20678;-77
2022/06/09 12:46:58;;;;;;;2.50;1.27;;;16.80;99.90;;;;;;5037706;28;20214;-78
2022/06/09 12:49:35;;;;;;;1.75;1.65;;;16.80;99.90;;;;;;5051560;28;20205;-77
2022/06/09 12:52:06;;;;;;;1.70;1.60;;;16.60;99.90;;;;;;5051462;28;20672;-77
2022/06/09 12:54:37;;;;;;;3.50;1.83;;;16.70;99.90;;;;;;5056563;28;20200;-78
2022/06/09 12:57:07;;;;;;;2.72;1.90;;;16.80;99.90;;;;;;5049358;28;20225;-78
2022/06/09 12:59:38;;;;;;;2.40;2.10;;;16.90;99.90;;;;;;5041704;28;20199;-78
2022/06/09 13:02:25;;;;;;;2.50;1.95;;;16.80;99.90;;;;;;5050247;28;20206;-78
2022/06/09 13:04:56;;;;;;;2.45;2.20;;;16.90;99.90;;;;;;5053399;28;20210;-78
2022/06/09 13:07:26;;;;;;;2.40;1.60;;;17.00;99.90;;;;;;5046387;28;20229;-77
2022/06/09 13:10:04;;;;;;;3.80;1.60;;;17.10;99.90;;;;;;5053087;28;20194;-77
2022/06/09 13:15:27;;;;;;;2.15;2.05;;;17.10;99.90;;;;;;5031482;28;20191;-77
2022/06/09 13:17:54;;;;;;;1.70;1.60;;;17.20;99.90;;;;;;5067397;28;20218;-77
2022/06/09 13:20:25;;;;;;;1.58;1.40;;;17.10;99.90;;;;;;5051166;28;20194;-77
2022/06/09 13:22:54;;;;;;;1.90;1.80;;;17.00;99.90;;;;;;5050916;28;20209;-78
2022/06/09 13:25:28;;;;;;;2.28;1.70;;;17.40;99.90;;;;;;5051494;28;20218;-79
2022/06/09 13:27:57;;;;;;;2.08;1.70;;;17.30;99.90;;;;;;5039277;28;20206;-77
2022/06/09 13:30:40;;;;;;;1.70;1.60;;;17.20;99.90;;;;;;5042443;28;20202;-77